B12G9 ZSAM-VMMC
Flight info
| Callsign | B12G9 |
|---|---|
| Flight time | N/A |
| Altitude | 20700 |
| Route | NUSPA W597 IKATA A470 BEBEM A470 DOTMI DCT SAMMI J101 SMT |
| Aircraft | B60T/L-SDFGRY/C |
Departure
| Time | 2026-04-29 08:51 |
|---|---|
| Airport | Xiamen Gaoqi International Airport (ZSAM) |
Arrival
| Time | N/A |
|---|---|
| Airport | Macau International Airport (VMMC) |
| Time | Latitude | Longitude | Altitude | Speed | Heading |
|---|---|---|---|---|---|
| 2026-04-29 08:38 | 24.54026 | 118.12680 | 39 ft | 0 kts | 142° |
| 2026-04-29 08:45 | 24.54025 | 118.12681 | 39 ft | 1 kts | 143° |
| 2026-04-29 08:45 | 24.53986 | 118.12702 | 39 ft | 11 kts | 187° |
| 2026-04-29 08:45 | 24.53935 | 118.12642 | 39 ft | 11 kts | 232° |
| 2026-04-29 08:45 | 24.53925 | 118.12566 | 39 ft | 12 kts | 316° |
| 2026-04-29 08:46 | 24.53987 | 118.12514 | 39 ft | 11 kts | 318° |
| 2026-04-29 08:46 | 24.53960 | 118.12423 | 39 ft | 18 kts | 231° |
| 2026-04-29 08:46 | 24.53873 | 118.12301 | 39 ft | 19 kts | 232° |
| 2026-04-29 08:46 | 24.53797 | 118.12194 | 39 ft | 17 kts | 232° |
| 2026-04-29 08:47 | 24.53721 | 118.12088 | 39 ft | 18 kts | 231° |
| 2026-04-29 08:47 | 24.53641 | 118.11976 | 39 ft | 19 kts | 232° |
| 2026-04-29 08:47 | 24.53559 | 118.11861 | 39 ft | 19 kts | 231° |
| 2026-04-29 08:47 | 24.53476 | 118.11745 | 39 ft | 17 kts | 231° |
| 2026-04-29 08:48 | 24.53410 | 118.11651 | 39 ft | 14 kts | 236° |
| 2026-04-29 08:48 | 24.53399 | 118.11585 | 39 ft | 0 kts | 284° |
| 2026-04-29 08:49 | 24.53399 | 118.11584 | 39 ft | 1 kts | 283° |
| 2026-04-29 08:49 | 24.53406 | 118.11557 | 39 ft | 9 kts | 285° |
| 2026-04-29 08:50 | 24.53449 | 118.11480 | 39 ft | 14 kts | 340° |
| 2026-04-29 08:50 | 24.53518 | 118.11510 | 39 ft | 4 kts | 53° |
| 2026-04-29 08:50 | 24.53520 | 118.11513 | 39 ft | 0 kts | 52° |
| 2026-04-29 08:50 | 24.53624 | 118.11659 | 39 ft | 65 kts | 53° |
| 2026-04-29 08:51 | 24.54066 | 118.12269 | 97 ft | 128 kts | 53° |
| 2026-04-29 08:51 | 24.54677 | 118.13139 | 489 ft | 157 kts | 55° |
| 2026-04-29 08:51 | 24.55370 | 118.14136 | 970 ft | 172 kts | 56° |
| 2026-04-29 08:51 | 24.56134 | 118.15200 | 1417 ft | 181 kts | 55° |
| 2026-04-29 08:52 | 24.56932 | 118.16290 | 1829 ft | 184 kts | 56° |
| 2026-04-29 08:52 | 24.57708 | 118.17378 | 2356 ft | 183 kts | 54° |
| 2026-04-29 08:52 | 24.58495 | 118.18487 | 2896 ft | 183 kts | 54° |
| 2026-04-29 08:52 | 24.59286 | 118.19599 | 3444 ft | 187 kts | 54° |
| 2026-04-29 08:53 | 24.60095 | 118.20733 | 3938 ft | 192 kts | 53° |
| 2026-04-29 08:53 | 24.60927 | 118.21900 | 4462 ft | 196 kts | 53° |
| 2026-04-29 08:53 | 24.61720 | 118.23128 | 4958 ft | 197 kts | 68° |
| 2026-04-29 08:53 | 24.61886 | 118.24578 | 5456 ft | 191 kts | 103° |
| 2026-04-29 08:54 | 24.61682 | 118.26025 | 5973 ft | 193 kts | 105° |
| 2026-04-29 08:54 | 24.61496 | 118.27496 | 6500 ft | 196 kts | 104° |
| 2026-04-29 08:54 | 24.61333 | 118.28991 | 6979 ft | 198 kts | 103° |
| 2026-04-29 08:54 | 24.61170 | 118.30491 | 7474 ft | 198 kts | 103° |
| 2026-04-29 08:55 | 24.60835 | 118.31921 | 7932 ft | 187 kts | 131° |
| 2026-04-29 08:55 | 24.59914 | 118.32775 | 8402 ft | 167 kts | 169° |
| 2026-04-29 08:55 | 24.58819 | 118.32934 | 8902 ft | 155 kts | 198° |
| 2026-04-29 08:55 | 24.57864 | 118.32490 | 9419 ft | 147 kts | 223° |
| 2026-04-29 08:56 | 24.57243 | 118.31616 | 9932 ft | 147 kts | 246° |
| 2026-04-29 08:56 | 24.57070 | 118.30511 | 10416 ft | 153 kts | 266° |
| 2026-04-29 08:56 | 24.56955 | 118.29368 | 10913 ft | 148 kts | 246° |
| 2026-04-29 08:56 | 24.56387 | 118.28445 | 11385 ft | 145 kts | 233° |
| 2026-04-29 08:57 | 24.55776 | 118.27575 | 11830 ft | 143 kts | 234° |
| 2026-04-29 08:57 | 24.55171 | 118.26714 | 12274 ft | 142 kts | 234° |
| 2026-04-29 08:57 | 24.54569 | 118.25863 | 12715 ft | 141 kts | 234° |
| 2026-04-29 08:57 | 24.53967 | 118.25016 | 13142 ft | 142 kts | 234° |
| 2026-04-29 08:58 | 24.53344 | 118.24137 | 13449 ft | 149 kts | 234° |
| 2026-04-29 08:58 | 24.52696 | 118.23224 | 13750 ft | 154 kts | 234° |
| 2026-04-29 08:58 | 24.52257 | 118.22607 | 13940 ft | 156 kts | 234° |
| 2026-04-29 08:58 | 24.51587 | 118.21662 | 14231 ft | 158 kts | 234° |
| 2026-04-29 08:59 | 24.50901 | 118.20697 | 14544 ft | 162 kts | 234° |
| 2026-04-29 08:59 | 24.50202 | 118.19709 | 14870 ft | 165 kts | 234° |
| 2026-04-29 08:59 | 24.49493 | 118.18707 | 15199 ft | 167 kts | 234° |
| 2026-04-29 08:59 | 24.48775 | 118.17694 | 15544 ft | 169 kts | 234° |
| 2026-04-29 09:00 | 24.48052 | 118.16674 | 15885 ft | 170 kts | 234° |
| 2026-04-29 09:00 | 24.47324 | 118.15649 | 16232 ft | 170 kts | 234° |
| 2026-04-29 09:00 | 24.46591 | 118.14628 | 16535 ft | 171 kts | 234° |
| 2026-04-29 09:00 | 24.45853 | 118.13603 | 16886 ft | 171 kts | 234° |
| 2026-04-29 09:01 | 24.45124 | 118.12564 | 17236 ft | 172 kts | 235° |
| 2026-04-29 09:01 | 24.44392 | 118.11521 | 17585 ft | 172 kts | 235° |
| 2026-04-29 09:01 | 24.43655 | 118.10481 | 17928 ft | 173 kts | 234° |
| 2026-04-29 09:01 | 24.42915 | 118.09441 | 18262 ft | 173 kts | 235° |
| 2026-04-29 09:02 | 24.42185 | 118.08411 | 18547 ft | 173 kts | 235° |
| 2026-04-29 09:02 | 24.41436 | 118.07354 | 18774 ft | 177 kts | 235° |
| 2026-04-29 09:02 | 24.40672 | 118.06280 | 19012 ft | 180 kts | 235° |
| 2026-04-29 09:02 | 24.39900 | 118.05194 | 19251 ft | 181 kts | 234° |
| 2026-04-29 09:03 | 24.39124 | 118.04101 | 19495 ft | 182 kts | 235° |
| 2026-04-29 09:03 | 24.38342 | 118.03001 | 19752 ft | 182 kts | 234° |
| 2026-04-29 09:03 | 24.37560 | 118.01903 | 20005 ft | 183 kts | 234° |
| 2026-04-29 09:03 | 24.36777 | 118.00801 | 20272 ft | 183 kts | 234° |
| 2026-04-29 09:04 | 24.35993 | 117.99700 | 20528 ft | 183 kts | 234° |
| 2026-04-29 09:04 | 24.35189 | 117.98569 | 20584 ft | 193 kts | 234° |
| 2026-04-29 09:04 | 24.34345 | 117.97381 | 20595 ft | 202 kts | 234° |
| 2026-04-29 09:04 | 24.33465 | 117.96146 | 20614 ft | 208 kts | 234° |
| 2026-04-29 09:05 | 24.32570 | 117.94889 | 20726 ft | 209 kts | 234° |
| 2026-04-29 09:05 | 24.31717 | 117.93693 | 20896 ft | 207 kts | 234° |
| 2026-04-29 09:08 | 24.31294 | 117.93103 | 20975 ft | 206 kts | 234° |
| 2026-04-29 09:08 | 24.30406 | 117.91869 | 21131 ft | 205 kts | 234° |
| 2026-04-29 09:09 | 24.29541 | 117.90650 | 21288 ft | 205 kts | 234° |
| 2026-04-29 09:09 | 24.28667 | 117.89418 | 21442 ft | 205 kts | 234° |
| 2026-04-29 09:09 | 24.27790 | 117.88186 | 21585 ft | 205 kts | 234° |
| 2026-04-29 09:09 | 24.26899 | 117.86937 | 21599 ft | 211 kts | 234° |
| 2026-04-29 09:10 | 24.25982 | 117.85652 | 21602 ft | 216 kts | 234° |
| 2026-04-29 09:10 | 24.25053 | 117.84341 | 21601 ft | 219 kts | 234° |
| 2026-04-29 09:10 | 24.24010 | 117.83095 | 21602 ft | 223 kts | 227° |